sensor_id;sensor_type;location;lat;lon;timestamp;temperature;humidity
17182;DHT22;8706;48.254;16.422;2024-01-15T00:00:08;16.80;52.80
17182;DHT22;8706;48.254;16.422;2024-01-15T00:02:35;16.90;53.00
17182;DHT22;8706;48.254;16.422;2024-01-15T00:05:04;16.90;52.90
17182;DHT22;8706;48.254;16.422;2024-01-15T00:07:31;16.90;52.90
17182;DHT22;8706;48.254;16.422;2024-01-15T00:09:58;16.90;52.90
17182;DHT22;8706;48.254;16.422;2024-01-15T00:12:25;16.80;52.90
17182;DHT22;8706;48.254;16.422;2024-01-15T00:14:52;16.80;52.90
17182;DHT22;8706;48.254;16.422;2024-01-15T00:17:18;16.80;52.90
17182;DHT22;8706;48.254;16.422;2024-01-15T00:19:45;16.90;52.80
17182;DHT22;8706;48.254;16.422;2024-01-15T00:22:13;16.90;52.90
17182;DHT22;8706;48.254;16.422;2024-01-15T00:24:40;16.90;52.90
17182;DHT22;8706;48.254;16.422;2024-01-15T00:27:07;16.90;52.90
17182;DHT22;8706;48.254;16.422;2024-01-15T00:29:34;16.90;52.90
17182;DHT22;8706;48.254;16.422;2024-01-15T00:32:01;16.80;52.90
17182;DHT22;8706;48.254;16.422;2024-01-15T00:34:28;16.80;53.00
17182;DHT22;8706;48.254;16.422;2024-01-15T00:36:54;16.90;53.00
17182;DHT22;8706;48.254;16.422;2024-01-15T00:39:23;16.80;53.00
17182;DHT22;8706;48.254;16.422;2024-01-15T00:41:50;16.90;53.00
17182;DHT22;8706;48.254;16.422;2024-01-15T00:44:16;16.80;53.00
17182;DHT22;8706;48.254;16.422;2024-01-15T00:46:44;16.90;53.00
17182;DHT22;8706;48.254;16.422;2024-01-15T00:49:11;16.90;53.10
17182;DHT22;8706;48.254;16.422;2024-01-15T00:51:38;16.90;53.00
17182;DHT22;8706;48.254;16.422;2024-01-15T00:54:05;16.90;53.00
17182;DHT22;8706;48.254;16.422;2024-01-15T00:56:34;16.90;53.10
17182;DHT22;8706;48.254;16.422;2024-01-15T00:59:00;16.90;53.00
17182;DHT22;8706;48.254;16.422;2024-01-15T01:01:27;16.90;53.00
17182;DHT22;8706;48.254;16.422;2024-01-15T01:03:55;16.90;53.00
17182;DHT22;8706;48.254;16.422;2024-01-15T01:06:22;16.90;53.00
17182;DHT22;8706;48.254;16.422;2024-01-15T01:08:48;16.90;53.10
17182;DHT22;8706;48.254;16.422;2024-01-15T01:11:16;16.90;53.00
17182;DHT22;8706;48.254;16.422;2024-01-15T01:13:44;16.90;53.00
17182;DHT22;8706;48.254;16.422;2024-01-15T01:16:11;16.90;53.00
17182;DHT22;8706;48.254;16.422;2024-01-15T01:18:37;16.90;53.00
17182;DHT22;8706;48.254;16.422;2024-01-15T01:21:04;16.90;53.00
17182;DHT22;8706;48.254;16.422;2024-01-15T01:23:31;16.90;53.10
17182;DHT22;8706;48.254;16.422;2024-01-15T01:25:58;16.90;53.00
17182;DHT22;8706;48.254;16.422;2024-01-15T01:28:25;16.90;53.10
17182;DHT22;8706;48.254;16.422;2024-01-15T01:30:53;16.90;53.00
17182;DHT22;8706;48.254;16.422;2024-01-15T01:33:20;16.90;53.00
17182;DHT22;8706;48.254;16.422;2024-01-15T01:35:47;16.90;53.10
17182;DHT22;8706;48.254;16.422;2024-01-15T01:38:14;16.90;53.10
17182;DHT22;8706;48.254;16.422;2024-01-15T01:40:41;16.90;53.00
17182;DHT22;8706;48.254;16.422;2024-01-15T01:43:09;16.90;53.10
17182;DHT22;8706;48.254;16.422;2024-01-15T01:45:36;16.90;53.10
17182;DHT22;8706;48.254;16.422;2024-01-15T01:48:05;16.90;53.00
17182;DHT22;8706;48.254;16.422;2024-01-15T01:50:32;16.90;53.00
17182;DHT22;8706;48.254;16.422;2024-01-15T01:53:00;16.90;53.10
17182;DHT22;8706;48.254;16.422;2024-01-15T01:55:29;16.90;53.10
17182;DHT22;8706;48.254;16.422;2024-01-15T01:57:59;16.90;53.00
17182;DHT22;8706;48.254;16.422;2024-01-15T02:00:27;16.90;53.00
17182;DHT22;8706;48.254;16.422;2024-01-15T02:02:54;16.90;53.00
17182;DHT22;8706;48.254;16.422;2024-01-15T02:05:23;16.90;53.00
17182;DHT22;8706;48.254;16.422;2024-01-15T02:07:49;17.00;53.00
17182;DHT22;8706;48.254;16.422;2024-01-15T02:10:16;16.90;53.00
17182;DHT22;8706;48.254;16.422;2024-01-15T02:12:43;16.90;53.10
17182;DHT22;8706;48.254;16.422;2024-01-15T02:15:11;16.90;53.10
17182;DHT22;8706;48.254;16.422;2024-01-15T02:17:56;16.90;53.00
17182;DHT22;8706;48.254;16.422;2024-01-15T02:20:24;17.00;53.00
17182;DHT22;8706;48.254;16.422;2024-01-15T02:22:52;17.00;53.00
17182;DHT22;8706;48.254;16.422;2024-01-15T02:25:20;17.00;53.00
17182;DHT22;8706;48.254;16.422;2024-01-15T02:27:47;16.90;53.10
17182;DHT22;8706;48.254;16.422;2024-01-15T02:30:14;16.90;53.00
17182;DHT22;8706;48.254;16.422;2024-01-15T02:32:42;16.90;53.10
17182;DHT22;8706;48.254;16.422;2024-01-15T02:35:09;16.90;53.10
17182;DHT22;8706;48.254;16.422;2024-01-15T02:37:36;16.90;53.10
17182;DHT22;8706;48.254;16.422;2024-01-15T02:40:03;16.90;53.10
17182;DHT22;8706;48.254;16.422;2024-01-15T02:42:31;16.90;53.10
17182;DHT22;8706;48.254;16.422;2024-01-15T02:44:58;16.90;53.00
17182;DHT22;8706;48.254;16.422;2024-01-15T02:47:25;16.90;53.00
17182;DHT22;8706;48.254;16.422;2024-01-15T02:49:52;17.00;52.90
17182;DHT22;8706;48.254;16.422;2024-01-15T02:52:19;17.00;53.00
17182;DHT22;8706;48.254;16.422;2024-01-15T02:54:45;16.90;52.90
17182;DHT22;8706;48.254;16.422;2024-01-15T02:57:12;17.00;52.90
17182;DHT22;8706;48.254;16.422;2024-01-15T02:59:41;16.90;52.90
17182;DHT22;8706;48.254;16.422;2024-01-15T03:02:07;17.00;52.90
17182;DHT22;8706;48.254;16.422;2024-01-15T03:04:34;16.90;52.80
17182;DHT22;8706;48.254;16.422;2024-01-15T03:07:01;17.00;52.80
17182;DHT22;8706;48.254;16.422;2024-01-15T03:09:28;17.00;52.90
17182;DHT22;8706;48.254;16.422;2024-01-15T03:11:55;17.00;52.70
17182;DHT22;8706;48.254;16.422;2024-01-15T03:14:22;17.00;52.80
17182;DHT22;8706;48.254;16.422;2024-01-15T03:16:52;17.00;52.70
17182;DHT22;8706;48.254;16.422;2024-01-15T03:19:19;17.00;52.70
17182;DHT22;8706;48.254;16.422;2024-01-15T03:21:46;17.00;52.70
17182;DHT22;8706;48.254;16.422;2024-01-15T03:24:13;17.00;52.60
17182;DHT22;8706;48.254;16.422;2024-01-15T03:26:40;17.00;52.60
17182;DHT22;8706;48.254;16.422;2024-01-15T03:29:07;17.00;52.60
17182;DHT22;8706;48.254;16.422;2024-01-15T03:31:34;17.00;52.50
17182;DHT22;8706;48.254;16.422;2024-01-15T03:34:02;17.00;52.60
17182;DHT22;8706;48.254;16.422;2024-01-15T03:36:29;17.00;52.30
17182;DHT22;8706;48.254;16.422;2024-01-15T03:38:56;17.00;52.60
17182;DHT22;8706;48.254;16.422;2024-01-15T03:41:23;17.00;52.50
17182;DHT22;8706;48.254;16.422;2024-01-15T03:43:50;17.00;52.60
17182;DHT22;8706;48.254;16.422;2024-01-15T03:46:17;17.00;52.50
17182;DHT22;8706;48.254;16.422;2024-01-15T03:48:44;17.00;52.30
17182;DHT22;8706;48.254;16.422;2024-01-15T03:51:12;17.00;52.30
17182;DHT22;8706;48.254;16.422;2024-01-15T03:53:39;17.00;52.30
17182;DHT22;8706;48.254;16.422;2024-01-15T03:56:05;17.00;52.30
17182;DHT22;8706;48.254;16.422;2024-01-15T03:58:32;17.00;52.30
17182;DHT22;8706;48.254;16.422;2024-01-15T04:00:59;17.00;52.30
17182;DHT22;8706;48.254;16.422;2024-01-15T04:03:26;17.00;52.20
17182;DHT22;8706;48.254;16.422;2024-01-15T04:05:53;17.00;52.30
17182;DHT22;8706;48.254;16.422;2024-01-15T04:08:21;17.00;52.10
17182;DHT22;8706;48.254;16.422;2024-01-15T04:10:48;17.00;52.10
17182;DHT22;8706;48.254;16.422;2024-01-15T04:13:15;16.90;52.10
17182;DHT22;8706;48.254;16.422;2024-01-15T04:15:42;17.00;52.00
17182;DHT22;8706;48.254;16.422;2024-01-15T04:18:08;17.00;52.10
17182;DHT22;8706;48.254;16.422;2024-01-15T04:20:35;17.00;52.20
17182;DHT22;8706;48.254;16.422;2024-01-15T04:23:02;16.90;52.20
17182;DHT22;8706;48.254;16.422;2024-01-15T04:25:31;17.00;52.10
17182;DHT22;8706;48.254;16.422;2024-01-15T04:27:57;17.00;51.90
17182;DHT22;8706;48.254;16.422;2024-01-15T04:30:24;16.90;52.10
17182;DHT22;8706;48.254;16.422;2024-01-15T04:32:51;17.00;52.00
17182;DHT22;8706;48.254;16.422;2024-01-15T04:35:18;16.90;52.10
17182;DHT22;8706;48.254;16.422;2024-01-15T04:37:45;17.00;52.20
17182;DHT22;8706;48.254;16.422;2024-01-15T04:40:13;16.90;51.90
17182;DHT22;8706;48.254;16.422;2024-01-15T04:42:41;16.90;52.20
17182;DHT22;8706;48.254;16.422;2024-01-15T04:45:09;16.90;52.10
17182;DHT22;8706;48.254;16.422;2024-01-15T04:47:35;16.90;52.00
17182;DHT22;8706;48.254;16.422;2024-01-15T04:50:03;16.90;52.10
17182;DHT22;8706;48.254;16.422;2024-01-15T04:52:31;16.90;51.90
17182;DHT22;8706;48.254;16.422;2024-01-15T04:54:58;16.90;52.10
17182;DHT22;8706;48.254;16.422;2024-01-15T04:57:24;16.80;52.10
17182;DHT22;8706;48.254;16.422;2024-01-15T04:59:53;16.90;52.10
17182;DHT22;8706;48.254;16.422;2024-01-15T05:02:20;16.90;52.10
17182;DHT22;8706;48.254;16.422;2024-01-15T05:04:46;16.90;52.10
17182;DHT22;8706;48.254;16.422;2024-01-15T05:07:13;16.90;51.90
17182;DHT22;8706;48.254;16.422;2024-01-15T05:09:40;16.90;51.80
17182;DHT22;8706;48.254;16.422;2024-01-15T05:12:07;16.90;51.70
17182;DHT22;8706;48.254;16.422;2024-01-15T05:14:34;16.90;51.70
17182;DHT22;8706;48.254;16.422;2024-01-15T05:17:03;16.90;51.70
17182;DHT22;8706;48.254;16.422;2024-01-15T05:19:30;16.90;51.70
17182;DHT22;8706;48.254;16.422;2024-01-15T05:21:56;16.80;51.60
17182;DHT22;8706;48.254;16.422;2024-01-15T05:24:23;16.80;51.60
17182;DHT22;8706;48.254;16.422;2024-01-15T05:26:52;16.90;51.60
17182;DHT22;8706;48.254;16.422;2024-01-15T05:29:18;16.90;51.60
17182;DHT22;8706;48.254;16.422;2024-01-15T05:31:45;16.90;51.60
17182;DHT22;8706;48.254;16.422;2024-01-15T05:34:13;16.80;51.70
17182;DHT22;8706;48.254;16.422;2024-01-15T05:36:40;16.80;51.60
17182;DHT22;8706;48.254;16.422;2024-01-15T05:39:07;16.80;51.80
17182;DHT22;8706;48.254;16.422;2024-01-15T05:41:34;16.80;51.70
17182;DHT22;8706;48.254;16.422;2024-01-15T05:44:01;16.80;51.80
17182;DHT22;8706;48.254;16.422;2024-01-15T05:46:28;16.80;51.70
17182;DHT22;8706;48.254;16.422;2024-01-15T05:48:55;16.80;51.70
17182;DHT22;8706;48.254;16.422;2024-01-15T05:51:23;16.80;51.70
17182;DHT22;8706;48.254;16.422;2024-01-15T05:53:50;16.70;51.80
17182;DHT22;8706;48.254;16.422;2024-01-15T05:56:17;16.80;51.70
17182;DHT22;8706;48.254;16.422;2024-01-15T05:58:43;16.80;51.70
17182;DHT22;8706;48.254;16.422;2024-01-15T06:01:10;16.80;51.70
17182;DHT22;8706;48.254;16.422;2024-01-15T06:03:37;16.80;51.70
17182;DHT22;8706;48.254;16.422;2024-01-15T06:06:04;16.70;51.70
17182;DHT22;8706;48.254;16.422;2024-01-15T06:08:33;16.70;51.70
17182;DHT22;8706;48.254;16.422;2024-01-15T06:10:59;16.70;51.80
17182;DHT22;8706;48.254;16.422;2024-01-15T06:13:26;16.70;51.80
17182;DHT22;8706;48.254;16.422;2024-01-15T06:15:53;16.70;51.70
17182;DHT22;8706;48.254;16.422;2024-01-15T06:18:20;16.70;51.70
17182;DHT22;8706;48.254;16.422;2024-01-15T06:20:47;16.80;51.60
17182;DHT22;8706;48.254;16.422;2024-01-15T06:23:14;16.70;51.60
17182;DHT22;8706;48.254;16.422;2024-01-15T06:25:42;16.70;51.70
17182;DHT22;8706;48.254;16.422;2024-01-15T06:28:09;16.70;51.60
17182;DHT22;8706;48.254;16.422;2024-01-15T06:30:36;16.70;51.70
17182;DHT22;8706;48.254;16.422;2024-01-15T06:33:03;16.70;51.60
17182;DHT22;8706;48.254;16.422;2024-01-15T06:35:30;16.70;51.60
17182;DHT22;8706;48.254;16.422;2024-01-15T06:37:57;16.80;51.60
17182;DHT22;8706;48.254;16.422;2024-01-15T06:40:23;16.70;51.60
17182;DHT22;8706;48.254;16.422;2024-01-15T06:42:52;16.70;51.60
17182;DHT22;8706;48.254;16.422;2024-01-15T06:45:18;16.80;51.50
17182;DHT22;8706;48.254;16.422;2024-01-15T06:47:45;16.80;51.50
17182;DHT22;8706;48.254;16.422;2024-01-15T06:50:12;16.70;51.60
17182;DHT22;8706;48.254;16.422;2024-01-15T06:52:39;16.70;51.50
17182;DHT22;8706;48.254;16.422;2024-01-15T06:55:06;16.80;51.50
17182;DHT22;8706;48.254;16.422;2024-01-15T06:57:33;16.80;51.50
17182;DHT22;8706;48.254;16.422;2024-01-15T07:00:02;16.80;51.40
17182;DHT22;8706;48.254;16.422;2024-01-15T07:02:33;16.80;51.50
17182;DHT22;8706;48.254;16.422;2024-01-15T07:05:00;14.00;46.70
17182;DHT22;8706;48.254;16.422;2024-01-15T07:07:27;14.40;49.40
17182;DHT22;8706;48.254;16.422;2024-01-15T07:09:57;15.20;49.00
17182;DHT22;8706;48.254;16.422;2024-01-15T07:12:24;15.60;48.70
17182;DHT22;8706;48.254;16.422;2024-01-15T07:14:51;15.90;48.80
17182;DHT22;8706;48.254;16.422;2024-01-15T07:17:19;16.10;48.90
17182;DHT22;8706;48.254;16.422;2024-01-15T07:19:46;16.20;49.00
17182;DHT22;8706;48.254;16.422;2024-01-15T07:22:13;16.30;49.10
17182;DHT22;8706;48.254;16.422;2024-01-15T07:24:40;16.50;49.10
17182;DHT22;8706;48.254;16.422;2024-01-15T07:27:07;16.50;49.10
17182;DHT22;8706;48.254;16.422;2024-01-15T07:29:34;16.70;49.10
17182;DHT22;8706;48.254;16.422;2024-01-15T07:32:03;16.70;49.20
17182;DHT22;8706;48.254;16.422;2024-01-15T07:34:31;16.70;49.20
17182;DHT22;8706;48.254;16.422;2024-01-15T07:36:58;16.80;49.40
17182;DHT22;8706;48.254;16.422;2024-01-15T07:39:25;16.80;49.60
17182;DHT22;8706;48.254;16.422;2024-01-15T07:41:54;16.90;49.80
17182;DHT22;8706;48.254;16.422;2024-01-15T07:44:21;16.90;50.00
17182;DHT22;8706;48.254;16.422;2024-01-15T07:46:48;16.90;50.00
17182;DHT22;8706;48.254;16.422;2024-01-15T07:49:15;16.90;50.30
17182;DHT22;8706;48.254;16.422;2024-01-15T07:51:43;17.00;49.80
17182;DHT22;8706;48.254;16.422;2024-01-15T07:54:10;17.00;50.10
17182;DHT22;8706;48.254;16.422;2024-01-15T07:56:53;17.00;50.10
17182;DHT22;8706;48.254;16.422;2024-01-15T07:59:20;17.00;50.30
17182;DHT22;8706;48.254;16.422;2024-01-15T08:01:46;17.00;50.50
17182;DHT22;8706;48.254;16.422;2024-01-15T08:04:14;17.20;50.20
17182;DHT22;8706;48.254;16.422;2024-01-15T08:06:40;17.20;50.30
17182;DHT22;8706;48.254;16.422;2024-01-15T08:09:09;17.20;50.50
17182;DHT22;8706;48.254;16.422;2024-01-15T08:11:36;17.20;50.50
17182;DHT22;8706;48.254;16.422;2024-01-15T08:14:03;17.20;50.60
17182;DHT22;8706;48.254;16.422;2024-01-15T08:16:29;17.20;50.80
17182;DHT22;8706;48.254;16.422;2024-01-15T08:18:56;17.20;50.80
17182;DHT22;8706;48.254;16.422;2024-01-15T08:21:23;17.20;50.90
17182;DHT22;8706;48.254;16.422;2024-01-15T08:23:50;17.20;50.90
17182;DHT22;8706;48.254;16.422;2024-01-15T08:26:19;17.30;50.80
17182;DHT22;8706;48.254;16.422;2024-01-15T08:28:47;17.30;51.00
17182;DHT22;8706;48.254;16.422;2024-01-15T08:31:14;17.40;51.00
17182;DHT22;8706;48.254;16.422;2024-01-15T08:33:41;17.50;50.90
17182;DHT22;8706;48.254;16.422;2024-01-15T08:36:12;17.50;51.00
17182;DHT22;8706;48.254;16.422;2024-01-15T08:38:39;17.50;51.00
17182;DHT22;8706;48.254;16.422;2024-01-15T08:41:06;17.60;50.80
17182;DHT22;8706;48.254;16.422;2024-01-15T08:43:35;17.70;50.80
17182;DHT22;8706;48.254;16.422;2024-01-15T08:46:03;17.80;50.60
17182;DHT22;8706;48.254;16.422;2024-01-15T08:48:29;18.00;50.40
17182;DHT22;8706;48.254;16.422;2024-01-15T08:50:56;18.10;50.90
17182;DHT22;8706;48.254;16.422;2024-01-15T08:53:23;18.30;50.10
17182;DHT22;8706;48.254;16.422;2024-01-15T08:55:51;18.40;50.00
17182;DHT22;8706;48.254;16.422;2024-01-15T08:58:18;18.50;49.60
17182;DHT22;8706;48.254;16.422;2024-01-15T09:00:46;18.60;49.60
17182;DHT22;8706;48.254;16.422;2024-01-15T09:03:15;18.70;49.50
17182;DHT22;8706;48.254;16.422;2024-01-15T09:05:42;18.80;49.40
17182;DHT22;8706;48.254;16.422;2024-01-15T09:08:09;18.90;49.30
17182;DHT22;8706;48.254;16.422;2024-01-15T09:10:36;18.90;49.10
17182;DHT22;8706;48.254;16.422;2024-01-15T09:13:03;19.00;49.30
17182;DHT22;8706;48.254;16.422;2024-01-15T09:15:30;19.00;49.20
17182;DHT22;8706;48.254;16.422;2024-01-15T09:17:59;19.00;49.40
17182;DHT22;8706;48.254;16.422;2024-01-15T09:20:27;18.90;49.40
17182;DHT22;8706;48.254;16.422;2024-01-15T09:22:54;18.90;49.30
17182;DHT22;8706;48.254;16.422;2024-01-15T09:25:21;18.80;49.60
17182;DHT22;8706;48.254;16.422;2024-01-15T09:27:48;18.80;49.60
17182;DHT22;8706;48.254;16.422;2024-01-15T09:30:16;18.80;49.80
17182;DHT22;8706;48.254;16.422;2024-01-15T09:32:43;18.80;49.60
17182;DHT22;8706;48.254;16.422;2024-01-15T09:35:11;18.70;49.60
17182;DHT22;8706;48.254;16.422;2024-01-15T09:37:39;18.70;49.50
17182;DHT22;8706;48.254;16.422;2024-01-15T09:40:08;18.80;49.60
17182;DHT22;8706;48.254;16.422;2024-01-15T09:42:35;18.90;49.50
17182;DHT22;8706;48.254;16.422;2024-01-15T09:45:03;19.00;49.20
17182;DHT22;8706;48.254;16.422;2024-01-15T09:47:30;19.20;49.30
17182;DHT22;8706;48.254;16.422;2024-01-15T09:49:57;19.30;48.90
17182;DHT22;8706;48.254;16.422;2024-01-15T09:52:26;19.40;48.90
17182;DHT22;8706;48.254;16.422;2024-01-15T09:54:53;19.50;48.70
17182;DHT22;8706;48.254;16.422;2024-01-15T09:57:20;19.60;48.60
17182;DHT22;8706;48.254;16.422;2024-01-15T09:59:48;19.60;48.60
17182;DHT22;8706;48.254;16.422;2024-01-15T10:02:16;19.60;48.60
17182;DHT22;8706;48.254;16.422;2024-01-15T10:04:44;19.50;49.00
17182;DHT22;8706;48.254;16.422;2024-01-15T10:07:14;19.40;49.00
17182;DHT22;8706;48.254;16.422;2024-01-15T10:09:42;19.40;49.10
17182;DHT22;8706;48.254;16.422;2024-01-15T10:12:10;19.60;49.30
17182;DHT22;8706;48.254;16.422;2024-01-15T10:14:37;20.00;48.80
17182;DHT22;8706;48.254;16.422;2024-01-15T10:17:12;20.20;48.60
17182;DHT22;8706;48.254;16.422;2024-01-15T10:19:39;20.30;48.40
17182;DHT22;8706;48.254;16.422;2024-01-15T10:22:08;20.20;48.50
17182;DHT22;8706;48.254;16.422;2024-01-15T10:24:36;20.20;48.70
17182;DHT22;8706;48.254;16.422;2024-01-15T10:27:08;20.20;48.90
17182;DHT22;8706;48.254;16.422;2024-01-15T10:29:35;20.20;48.90
17182;DHT22;8706;48.254;16.422;2024-01-15T10:32:03;20.30;48.80
17182;DHT22;8706;48.254;16.422;2024-01-15T10:34:32;20.20;48.90
17182;DHT22;8706;48.254;16.422;2024-01-15T10:36:59;20.20;49.00
17182;DHT22;8706;48.254;16.422;2024-01-15T10:39:28;20.30;49.00
17182;DHT22;8706;48.254;16.422;2024-01-15T10:41:56;20.30;49.00
17182;DHT22;8706;48.254;16.422;2024-01-15T10:44:24;20.30;49.00
17182;DHT22;8706;48.254;16.422;2024-01-15T10:46:51;20.30;49.00
17182;DHT22;8706;48.254;16.422;2024-01-15T10:49:18;20.30;49.20
17182;DHT22;8706;48.254;16.422;2024-01-15T10:51:47;20.30;49.30
17182;DHT22;8706;48.254;16.422;2024-01-15T10:54:15;20.40;49.30
17182;DHT22;8706;48.254;16.422;2024-01-15T10:56:43;20.40;49.30
17182;DHT22;8706;48.254;16.422;2024-01-15T10:59:13;20.40;49.30
17182;DHT22;8706;48.254;16.422;2024-01-15T11:01:42;20.40;49.30
17182;DHT22;8706;48.254;16.422;2024-01-15T11:04:09;20.40;49.30
17182;DHT22;8706;48.254;16.422;2024-01-15T11:06:43;20.50;49.20
17182;DHT22;8706;48.254;16.422;2024-01-15T11:09:12;20.80;49.00
17182;DHT22;8706;48.254;16.422;2024-01-15T11:11:41;20.90;48.70
17182;DHT22;8706;48.254;16.422;2024-01-15T11:14:08;21.10;48.60
17182;DHT22;8706;48.254;16.422;2024-01-15T11:16:57;21.30;48.50
17182;DHT22;8706;48.254;16.422;2024-01-15T11:19:25;21.40;47.60
17182;DHT22;8706;48.254;16.422;2024-01-15T11:21:52;21.40;47.60
17182;DHT22;8706;48.254;16.422;2024-01-15T11:24:36;21.40;47.60
17182;DHT22;8706;48.254;16.422;2024-01-15T11:27:04;21.60;47.60
17182;DHT22;8706;48.254;16.422;2024-01-15T11:29:32;21.70;47.60
17182;DHT22;8706;48.254;16.422;2024-01-15T11:32:03;21.70;47.60
17182;DHT22;8706;48.254;16.422;2024-01-15T11:34:50;21.70;47.40
17182;DHT22;8706;48.254;16.422;2024-01-15T11:37:18;21.60;47.70
17182;DHT22;8706;48.254;16.422;2024-01-15T11:39:45;21.60;47.60
17182;DHT22;8706;48.254;16.422;2024-01-15T11:42:13;21.60;47.80
17182;DHT22;8706;48.254;16.422;2024-01-15T11:44:41;21.40;47.80
17182;DHT22;8706;48.254;16.422;2024-01-15T11:47:10;21.40;48.00
17182;DHT22;8706;48.254;16.422;2024-01-15T11:49:59;21.40;48.10
17182;DHT22;8706;48.254;16.422;2024-01-15T11:52:28;21.40;47.60
17182;DHT22;8706;48.254;16.422;2024-01-15T11:55:06;21.50;48.00
17182;DHT22;8706;48.254;16.422;2024-01-15T11:57:41;21.30;47.70
17182;DHT22;8706;48.254;16.422;2024-01-15T12:00:09;21.40;47.60
17182;DHT22;8706;48.254;16.422;2024-01-15T12:02:39;21.40;47.60
17182;DHT22;8706;48.254;16.422;2024-01-15T12:05:07;21.50;47.50
17182;DHT22;8706;48.254;16.422;2024-01-15T12:07:34;21.50;47.20
17182;DHT22;8706;48.254;16.422;2024-01-15T12:10:01;21.40;47.60
17182;DHT22;8706;48.254;16.422;2024-01-15T12:12:35;21.30;47.60
17182;DHT22;8706;48.254;16.422;2024-01-15T12:15:04;21.20;47.80
17182;DHT22;8706;48.254;16.422;2024-01-15T12:17:31;21.00;48.00
17182;DHT22;8706;48.254;16.422;2024-01-15T12:20:00;21.00;48.10
17182;DHT22;8706;48.254;16.422;2024-01-15T12:22:27;21.10;47.80
17182;DHT22;8706;48.254;16.422;2024-01-15T12:24:54;21.30;47.70
17182;DHT22;8706;48.254;16.422;2024-01-15T12:27:21;21.40;47.50
17182;DHT22;8706;48.254;16.422;2024-01-15T12:29:48;21.50;47.40
17182;DHT22;8706;48.254;16.422;2024-01-15T12:32:15;21.50;47.50
17182;DHT22;8706;48.254;16.422;2024-01-15T12:34:43;21.50;47.10
17182;DHT22;8706;48.254;16.422;2024-01-15T12:37:11;21.50;47.40
17182;DHT22;8706;48.254;16.422;2024-01-15T12:39:38;21.50;46.90
17182;DHT22;8706;48.254;16.422;2024-01-15T12:42:05;21.40;46.90
17182;DHT22;8706;48.254;16.422;2024-01-15T12:44:32;21.40;47.10
17182;DHT22;8706;48.254;16.422;2024-01-15T12:46:59;21.40;47.20
17182;DHT22;8706;48.254;16.422;2024-01-15T12:49:26;21.40;47.10
17182;DHT22;8706;48.254;16.422;2024-01-15T12:51:53;21.40;47.10
17182;DHT22;8706;48.254;16.422;2024-01-15T12:54:22;21.40;47.10
17182;DHT22;8706;48.254;16.422;2024-01-15T12:56:49;21.40;47.30
17182;DHT22;8706;48.254;16.422;2024-01-15T12:59:16;21.30;47.10
17182;DHT22;8706;48.254;16.422;2024-01-15T13:01:44;21.30;47.30
17182;DHT22;8706;48.254;16.422;2024-01-15T13:04:11;21.20;47.40
17182;DHT22;8706;48.254;16.422;2024-01-15T13:06:37;21.00;48.30
17182;DHT22;8706;48.254;16.422;2024-01-15T13:09:04;21.00;47.90
17182;DHT22;8706;48.254;16.422;2024-01-15T13:11:32;20.80;48.00
17182;DHT22;8706;48.254;16.422;2024-01-15T13:13:59;20.70;48.20
17182;DHT22;8706;48.254;16.422;2024-01-15T13:16:26;20.50;48.40
17182;DHT22;8706;48.254;16.422;2024-01-15T13:18:54;20.40;48.70
17182;DHT22;8706;48.254;16.422;2024-01-15T13:21:22;20.30;48.80
17182;DHT22;8706;48.254;16.422;2024-01-15T13:23:48;20.20;48.80
17182;DHT22;8706;48.254;16.422;2024-01-15T13:26:15;20.20;48.90
17182;DHT22;8706;48.254;16.422;2024-01-15T13:28:45;20.20;48.80
17182;DHT22;8706;48.254;16.422;2024-01-15T13:31:12;20.20;48.90
17182;DHT22;8706;48.254;16.422;2024-01-15T13:33:39;20.10;48.90
17182;DHT22;8706;48.254;16.422;2024-01-15T13:36:06;20.20;48.90
17182;DHT22;8706;48.254;16.422;2024-01-15T13:38:36;20.30;48.90
17182;DHT22;8706;48.254;16.422;2024-01-15T13:41:04;20.30;48.90
17182;DHT22;8706;48.254;16.422;2024-01-15T13:43:31;20.40;48.80
17182;DHT22;8706;48.254;16.422;2024-01-15T13:45:59;20.40;48.60
17182;DHT22;8706;48.254;16.422;2024-01-15T13:48:30;20.50;48.50
17182;DHT22;8706;48.254;16.422;2024-01-15T13:50:57;20.50;48.40
17182;DHT22;8706;48.254;16.422;2024-01-15T13:53:24;20.50;48.30
17182;DHT22;8706;48.254;16.422;2024-01-15T13:55:51;20.50;48.40
17182;DHT22;8706;48.254;16.422;2024-01-15T13:58:18;20.40;48.60
17182;DHT22;8706;48.254;16.422;2024-01-15T14:00:47;20.30;48.50
17182;DHT22;8706;48.254;16.422;2024-01-15T14:03:15;20.20;48.40
17182;DHT22;8706;48.254;16.422;2024-01-15T14:05:42;20.10;48.70
17182;DHT22;8706;48.254;16.422;2024-01-15T14:08:09;20.00;48.50
17182;DHT22;8706;48.254;16.422;2024-01-15T14:10:36;20.00;48.90
17182;DHT22;8706;48.254;16.422;2024-01-15T14:13:04;19.90;48.90
17182;DHT22;8706;48.254;16.422;2024-01-15T14:15:31;19.80;49.00
17182;DHT22;8706;48.254;16.422;2024-01-15T14:17:57;19.70;49.10
17182;DHT22;8706;48.254;16.422;2024-01-15T14:20:27;19.70;49.20
17182;DHT22;8706;48.254;16.422;2024-01-15T14:22:54;19.60;49.50
17182;DHT22;8706;48.254;16.422;2024-01-15T14:25:20;19.60;49.30
17182;DHT22;8706;48.254;16.422;2024-01-15T14:27:47;19.50;49.40
17182;DHT22;8706;48.254;16.422;2024-01-15T14:30:16;19.50;49.70
17182;DHT22;8706;48.254;16.422;2024-01-15T14:32:43;19.30;49.70
17182;DHT22;8706;48.254;16.422;2024-01-15T14:35:10;19.30;50.00
17182;DHT22;8706;48.254;16.422;2024-01-15T14:37:38;19.40;49.80
17182;DHT22;8706;48.254;16.422;2024-01-15T14:40:06;19.40;49.80
17182;DHT22;8706;48.254;16.422;2024-01-15T14:42:34;19.40;49.80
17182;DHT22;8706;48.254;16.422;2024-01-15T14:45:02;19.40;49.70
17182;DHT22;8706;48.254;16.422;2024-01-15T14:47:30;19.40;49.80
17182;DHT22;8706;48.254;16.422;2024-01-15T14:49:57;19.40;49.70
17182;DHT22;8706;48.254;16.422;2024-01-15T14:52:24;19.40;49.80
17182;DHT22;8706;48.254;16.422;2024-01-15T14:54:53;19.30;49.80
17182;DHT22;8706;48.254;16.422;2024-01-15T14:57:23;19.30;49.90
17182;DHT22;8706;48.254;16.422;2024-01-15T14:59:49;19.20;49.90
17182;DHT22;8706;48.254;16.422;2024-01-15T15:02:16;19.20;50.00
17182;DHT22;8706;48.254;16.422;2024-01-15T15:04:44;19.10;50.00
17182;DHT22;8706;48.254;16.422;2024-01-15T15:07:11;19.00;50.10
17182;DHT22;8706;48.254;16.422;2024-01-15T15:09:38;18.90;50.20
17182;DHT22;8706;48.254;16.422;2024-01-15T15:12:07;18.90;50.40
17182;DHT22;8706;48.254;16.422;2024-01-15T15:14:34;18.80;50.40
17182;DHT22;8706;48.254;16.422;2024-01-15T15:17:04;18.80;50.40
17182;DHT22;8706;48.254;16.422;2024-01-15T15:19:31;18.70;50.10
17182;DHT22;8706;48.254;16.422;2024-01-15T15:21:58;18.70;50.60
17182;DHT22;8706;48.254;16.422;2024-01-15T15:24:25;18.60;50.50
17182;DHT22;8706;48.254;16.422;2024-01-15T15:26:52;18.50;50.70
17182;DHT22;8706;48.254;16.422;2024-01-15T15:29:21;18.50;50.90
17182;DHT22;8706;48.254;16.422;2024-01-15T15:31:50;18.40;50.70